sensor_id;sensor_type;location;lat;lon;timestamp;pressure;altitude;pressure_sealevel;temperature;humidity
7990;BME280;4040;42.848;23.034;2023-06-26T00:01:41;94753.59;;;19.55;100.00
7990;BME280;4040;42.848;23.034;2023-06-26T00:07:31;94786.63;;;19.75;100.00
7990;BME280;4040;42.848;23.034;2023-06-26T00:13:23;94775.72;;;19.75;100.00
7990;BME280;4040;42.848;23.034;2023-06-26T00:19:12;94748.59;;;19.62;100.00
7990;BME280;4040;42.848;23.034;2023-06-26T00:25:01;94736.06;;;19.38;100.00
7990;BME280;4040;42.848;23.034;2023-06-26T00:30:51;94763.63;;;19.58;100.00
7990;BME280;4040;42.848;23.034;2023-06-26T00:36:40;94761.06;;;19.54;100.00
7990;BME280;4040;42.848;23.034;2023-06-26T00:39:09;94758.19;;;19.49;100.00
7990;BME280;4040;42.848;23.034;2023-06-26T00:44:57;94747.56;;;19.42;100.00
7990;BME280;4040;42.848;23.034;2023-06-26T00:50:48;94750.03;;;19.22;100.00
7990;BME280;4040;42.848;23.034;2023-06-26T00:56:37;94735.47;;;19.07;100.00
7990;BME280;4040;42.848;23.034;2023-06-26T01:02:26;94743.97;;;19.00;100.00
7990;BME280;4040;42.848;23.034;2023-06-26T01:08:22;94743.38;;;19.05;100.00
7990;BME280;4040;42.848;23.034;2023-06-26T01:14:11;94730.03;;;19.07;100.00
7990;BME280;4040;42.848;23.034;2023-06-26T01:20:01;94724.88;;;18.91;100.00
7990;BME280;4040;42.848;23.034;2023-06-26T01:26:10;94722.75;;;18.68;100.00
7990;BME280;4040;42.848;23.034;2023-06-26T01:32:00;94715.47;;;18.56;100.00
7990;BME280;4040;42.848;23.034;2023-06-26T01:37:49;94711.69;;;18.53;100.00
7990;BME280;4040;42.848;23.034;2023-06-26T01:43:46;94720.91;;;18.38;100.00
7990;BME280;4040;42.848;23.034;2023-06-26T01:49:43;94711.78;;;18.23;100.00
7990;BME280;4040;42.848;23.034;2023-06-26T01:52:19;94685.69;;;18.04;100.00
7990;BME280;4040;42.848;23.034;2023-06-26T01:58:21;94719.19;;;18.22;100.00
7990;BME280;4040;42.848;23.034;2023-06-26T02:07:54;94708.34;;;18.31;100.00
7990;BME280;4040;42.848;23.034;2023-06-26T02:13:42;94649.84;;;18.05;100.00
7990;BME280;4040;42.848;23.034;2023-06-26T02:19:31;94709.09;;;18.50;100.00
7990;BME280;4040;42.848;23.034;2023-06-26T02:25:22;94709.72;;;18.45;100.00
7990;BME280;4040;42.848;23.034;2023-06-26T02:31:10;94711.38;;;18.42;100.00
7990;BME280;4040;42.848;23.034;2023-06-26T02:36:59;94704.22;;;18.27;100.00
7990;BME280;4040;42.848;23.034;2023-06-26T02:42:49;94713.00;;;18.22;100.00
7990;BME280;4040;42.848;23.034;2023-06-26T02:48:38;94705.38;;;18.08;100.00
7990;BME280;4040;42.848;23.034;2023-06-26T02:54:27;94707.78;;;17.97;100.00
7990;BME280;4040;42.848;23.034;2023-06-26T03:00:18;94710.50;;;17.97;100.00
7990;BME280;4040;42.848;23.034;2023-06-26T03:06:17;94706.91;;;18.00;100.00
7990;BME280;4040;42.848;23.034;2023-06-26T03:12:07;94714.66;;;18.19;100.00
7990;BME280;4040;42.848;23.034;2023-06-26T03:17:57;94715.59;;;18.34;100.00
7990;BME280;4040;42.848;23.034;2023-06-26T03:23:46;94700.47;;;18.33;100.00
7990;BME280;4040;42.848;23.034;2023-06-26T03:29:34;94709.28;;;18.46;100.00
7990;BME280;4040;42.848;23.034;2023-06-26T03:35:25;94721.25;;;18.67;100.00
7990;BME280;4040;42.848;23.034;2023-06-26T03:41:13;94723.22;;;18.93;100.00
7990;BME280;4040;42.848;23.034;2023-06-26T03:47:03;94722.44;;;19.29;100.00
7990;BME280;4040;42.848;23.034;2023-06-26T03:52:53;94715.06;;;19.53;100.00
7990;BME280;4040;42.848;23.034;2023-06-26T03:58:41;94702.56;;;19.70;100.00
7990;BME280;4040;42.848;23.034;2023-06-26T04:04:30;94699.31;;;19.80;100.00
7990;BME280;4040;42.848;23.034;2023-06-26T04:10:41;94710.38;;;19.86;100.00
7990;BME280;4040;42.848;23.034;2023-06-26T04:16:29;94698.88;;;19.82;100.00
7990;BME280;4040;42.848;23.034;2023-06-26T04:22:18;94707.41;;;19.66;100.00
7990;BME280;4040;42.848;23.034;2023-06-26T04:28:08;94715.59;;;19.75;100.00
7990;BME280;4040;42.848;23.034;2023-06-26T04:33:59;94716.06;;;19.73;100.00
7990;BME280;4040;42.848;23.034;2023-06-26T04:39:48;94715.91;;;19.77;100.00
7990;BME280;4040;42.848;23.034;2023-06-26T04:45:38;94716.31;;;19.84;100.00
7990;BME280;4040;42.848;23.034;2023-06-26T04:51:27;94649.19;;;19.60;100.00
7990;BME280;4040;42.848;23.034;2023-06-26T04:57:16;94702.63;;;19.93;100.00
7990;BME280;4040;42.848;23.034;2023-06-26T05:03:07;94708.25;;;20.22;100.00
7990;BME280;4040;42.848;23.034;2023-06-26T05:12:57;94725.66;;;20.57;100.00
7990;BME280;4040;42.848;23.034;2023-06-26T05:18:48;94719.44;;;20.94;100.00
7990;BME280;4040;42.848;23.034;2023-06-26T05:24:37;94717.03;;;22.72;100.00
7990;BME280;4040;42.848;23.034;2023-06-26T05:30:27;94665.84;;;25.19;100.00
7990;BME280;4040;42.848;23.034;2023-06-26T05:36:20;94691.22;;;27.00;100.00
7990;BME280;4040;42.848;23.034;2023-06-26T05:42:12;94702.00;;;25.65;100.00
7990;BME280;4040;42.848;23.034;2023-06-26T05:48:01;94705.44;;;24.57;100.00
7990;BME280;4040;42.848;23.034;2023-06-26T05:53:52;94700.72;;;24.21;100.00
7990;BME280;4040;42.848;23.034;2023-06-26T05:59:42;94704.25;;;26.27;100.00
7990;BME280;4040;42.848;23.034;2023-06-26T06:05:31;94708.03;;;26.24;100.00
7990;BME280;4040;42.848;23.034;2023-06-26T06:15:43;94711.91;;;26.77;100.00
7990;BME280;4040;42.848;23.034;2023-06-26T06:21:33;94710.44;;;27.28;100.00
7990;BME280;4040;42.848;23.034;2023-06-26T06:27:22;94706.50;;;25.79;100.00
7990;BME280;4040;42.848;23.034;2023-06-26T06:33:13;94707.75;;;25.61;100.00
7990;BME280;4040;42.848;23.034;2023-06-26T06:39:01;94708.47;;;26.38;100.00
7990;BME280;4040;42.848;23.034;2023-06-26T06:44:50;94707.41;;;25.10;100.00
7990;BME280;4040;42.848;23.034;2023-06-26T06:50:40;94701.75;;;28.47;89.73
7990;BME280;4040;42.848;23.034;2023-06-26T06:56:29;94699.94;;;29.53;70.85
7990;BME280;4040;42.848;23.034;2023-06-26T07:02:17;94715.25;;;27.97;73.53
7990;BME280;4040;42.848;23.034;2023-06-26T07:08:08;94696.44;;;30.99;68.86
7990;BME280;4040;42.848;23.034;2023-06-26T07:18:19;94691.97;;;29.81;65.99
7990;BME280;4040;42.848;23.034;2023-06-26T07:24:09;94692.44;;;31.67;59.61
7990;BME280;4040;42.848;23.034;2023-06-26T07:29:58;94694.53;;;31.87;54.66
7990;BME280;4040;42.848;23.034;2023-06-26T07:35:47;94676.69;;;31.69;54.06
7990;BME280;4040;42.848;23.034;2023-06-26T07:41:37;94687.22;;;33.79;53.50
7990;BME280;4040;42.848;23.034;2023-06-26T07:47:25;94690.25;;;34.11;50.43
7990;BME280;4040;42.848;23.034;2023-06-26T07:53:14;94694.41;;;36.11;45.59
7990;BME280;4040;42.848;23.034;2023-06-26T07:59:04;94690.72;;;36.33;44.35
7990;BME280;4040;42.848;23.034;2023-06-26T08:04:53;94691.94;;;36.22;42.20
7990;BME280;4040;42.848;23.034;2023-06-26T08:10:42;94694.41;;;34.70;45.47
7990;BME280;4040;42.848;23.034;2023-06-26T08:20:54;94682.38;;;36.50;40.50
7990;BME280;4040;42.848;23.034;2023-06-26T08:26:45;94681.63;;;37.59;40.91
7990;BME280;4040;42.848;23.034;2023-06-26T08:32:34;94690.47;;;36.14;41.30
7990;BME280;4040;42.848;23.034;2023-06-26T08:38:24;94693.34;;;36.80;38.74
7990;BME280;4040;42.848;23.034;2023-06-26T08:44:12;94694.16;;;35.92;39.95
7990;BME280;4040;42.848;23.034;2023-06-26T08:50:07;94683.06;;;36.58;37.70
7990;BME280;4040;42.848;23.034;2023-06-26T08:55:58;94681.38;;;36.55;38.60
7990;BME280;4040;42.848;23.034;2023-06-26T09:01:47;94680.78;;;36.15;38.52
7990;BME280;4040;42.848;23.034;2023-06-26T09:07:36;94679.84;;;35.80;40.39
7990;BME280;4040;42.848;23.034;2023-06-26T09:13:28;94681.72;;;35.78;40.14
7990;BME280;4040;42.848;23.034;2023-06-26T09:23:40;94677.72;;;37.71;36.87
7990;BME280;4040;42.848;23.034;2023-06-26T09:29:31;94684.31;;;36.40;36.21
7990;BME280;4040;42.848;23.034;2023-06-26T09:35:20;94689.38;;;38.47;36.09
7990;BME280;4040;42.848;23.034;2023-06-26T09:41:09;94678.72;;;36.98;36.22
7990;BME280;4040;42.848;23.034;2023-06-26T09:47:01;94675.28;;;35.92;38.24
7990;BME280;4040;42.848;23.034;2023-06-26T09:52:51;94681.44;;;36.23;37.29
7990;BME280;4040;42.848;23.034;2023-06-26T09:58:40;94677.53;;;35.94;39.56
7990;BME280;4040;42.848;23.034;2023-06-26T10:04:31;94685.25;;;37.69;35.08
7990;BME280;4040;42.848;23.034;2023-06-26T10:10:21;94672.84;;;36.87;36.19
7990;BME280;4040;42.848;23.034;2023-06-26T10:16:11;94670.25;;;37.06;36.88
7990;BME280;4040;42.848;23.034;2023-06-26T10:26:24;94657.19;;;37.01;35.01
7990;BME280;4040;42.848;23.034;2023-06-26T10:32:16;94670.78;;;37.99;35.25
7990;BME280;4040;42.848;23.034;2023-06-26T10:38:05;94654.28;;;37.86;33.98
7990;BME280;4040;42.848;23.034;2023-06-26T10:44:08;94659.84;;;35.44;37.66
7990;BME280;4040;42.848;23.034;2023-06-26T10:50:16;94654.91;;;31.47;45.23
7990;BME280;4040;42.848;23.034;2023-06-26T10:56:05;94650.22;;;30.31;49.41
7990;BME280;4040;42.848;23.034;2023-06-26T11:01:56;94647.31;;;29.79;48.54
7990;BME280;4040;42.848;23.034;2023-06-26T11:08:03;94644.78;;;29.13;51.29
7990;BME280;4040;42.848;23.034;2023-06-26T11:13:52;94639.94;;;29.50;50.59
7990;BME280;4040;42.848;23.034;2023-06-26T11:19:44;94634.06;;;29.85;51.76
7990;BME280;4040;42.848;23.034;2023-06-26T11:25:34;94636.94;;;29.48;50.76
7990;BME280;4040;42.848;23.034;2023-06-26T11:31:24;94640.19;;;28.54;54.78
7990;BME280;4040;42.848;23.034;2023-06-26T11:37:17;94637.56;;;29.04;54.37
7990;BME280;4040;42.848;23.034;2023-06-26T11:43:06;94642.78;;;28.89;56.74
7990;BME280;4040;42.848;23.034;2023-06-26T11:48:55;94631.97;;;28.19;53.47
7990;BME280;4040;42.848;23.034;2023-06-26T11:54:45;94628.97;;;27.64;55.22
7990;BME280;4040;42.848;23.034;2023-06-26T12:00:34;94640.06;;;28.17;59.30
7990;BME280;4040;42.848;23.034;2023-06-26T12:06:23;94642.50;;;28.26;58.37
7990;BME280;4040;42.848;23.034;2023-06-26T12:08:50;94637.41;;;28.30;59.76
7990;BME280;4040;42.848;23.034;2023-06-26T12:14:40;94621.56;;;28.07;61.04
7990;BME280;4040;42.848;23.034;2023-06-26T12:20:29;94632.25;;;27.62;59.34
7990;BME280;4040;42.848;23.034;2023-06-26T12:26:20;94634.75;;;27.95;59.64
7990;BME280;4040;42.848;23.034;2023-06-26T12:32:11;94609.88;;;27.60;62.00
7990;BME280;4040;42.848;23.034;2023-06-26T12:38:00;94624.78;;;27.52;61.80
7990;BME280;4040;42.848;23.034;2023-06-26T12:43:49;94626.31;;;27.47;62.24
7990;BME280;4040;42.848;23.034;2023-06-26T12:49:40;94623.94;;;27.62;57.89
7990;BME280;4040;42.848;23.034;2023-06-26T12:55:29;94619.25;;;26.71;64.51
7990;BME280;4040;42.848;23.034;2023-06-26T13:01:18;94620.09;;;26.95;68.85
7990;BME280;4040;42.848;23.034;2023-06-26T13:07:08;94617.31;;;27.76;65.68
7990;BME280;4040;42.848;23.034;2023-06-26T13:12:57;94627.75;;;27.59;62.64
7990;BME280;4040;42.848;23.034;2023-06-26T13:18:45;94624.56;;;27.79;61.71
7990;BME280;4040;42.848;23.034;2023-06-26T13:28:58;94624.19;;;27.64;59.55
7990;BME280;4040;42.848;23.034;2023-06-26T13:34:46;94628.44;;;27.65;61.73
7990;BME280;4040;42.848;23.034;2023-06-26T13:40:35;94620.84;;;27.71;61.80
7990;BME280;4040;42.848;23.034;2023-06-26T13:46:25;94617.09;;;27.69;61.89
7990;BME280;4040;42.848;23.034;2023-06-26T13:52:15;94613.88;;;27.30;60.35
7990;BME280;4040;42.848;23.034;2023-06-26T13:58:04;94613.13;;;26.89;60.44
7990;BME280;4040;42.848;23.034;2023-06-26T14:03:54;94615.69;;;26.76;60.20
7990;BME280;4040;42.848;23.034;2023-06-26T14:09:43;94616.19;;;26.74;60.56
7990;BME280;4040;42.848;23.034;2023-06-26T14:15:32;94616.75;;;27.13;65.69
7990;BME280;4040;42.848;23.034;2023-06-26T14:21:24;94621.81;;;27.09;63.62
7990;BME280;4040;42.848;23.034;2023-06-26T14:31:35;94607.81;;;26.96;64.83
7990;BME280;4040;42.848;23.034;2023-06-26T14:37:26;94606.22;;;27.06;64.78
7990;BME280;4040;42.848;23.034;2023-06-26T14:43:14;94604.72;;;27.05;67.33
7990;BME280;4040;42.848;23.034;2023-06-26T14:45:41;94610.38;;;26.83;65.20
7990;BME280;4040;42.848;23.034;2023-06-26T14:51:30;94606.03;;;26.47;65.33
7990;BME280;4040;42.848;23.034;2023-06-26T14:57:20;94603.03;;;26.45;65.25
7990;BME280;4040;42.848;23.034;2023-06-26T15:03:09;94600.50;;;26.47;65.78
7990;BME280;4040;42.848;23.034;2023-06-26T15:08:58;94599.75;;;26.41;66.17
7990;BME280;4040;42.848;23.034;2023-06-26T15:14:49;94602.75;;;26.43;67.03
7990;BME280;4040;42.848;23.034;2023-06-26T15:20:38;94602.75;;;26.43;70.30
7990;BME280;4040;42.848;23.034;2023-06-26T15:26:27;94597.50;;;26.45;68.97
7990;BME280;4040;42.848;23.034;2023-06-26T15:32:17;94595.59;;;26.19;70.37
7990;BME280;4040;42.848;23.034;2023-06-26T15:38:06;94603.06;;;26.35;71.63
7990;BME280;4040;42.848;23.034;2023-06-26T15:43:55;94609.09;;;26.28;69.78
7990;BME280;4040;42.848;23.034;2023-06-26T15:49:45;94620.00;;;25.98;70.17
7990;BME280;4040;42.848;23.034;2023-06-26T15:55:34;94614.19;;;26.13;71.02
7990;BME280;4040;42.848;23.034;2023-06-26T16:01:23;94613.63;;;26.20;72.09
7990;BME280;4040;42.848;23.034;2023-06-26T16:07:14;94624.50;;;26.01;71.19
7990;BME280;4040;42.848;23.034;2023-06-26T16:13:03;94619.72;;;25.80;69.74
7990;BME280;4040;42.848;23.034;2023-06-26T16:18:52;94622.50;;;25.47;72.04
7990;BME280;4040;42.848;23.034;2023-06-26T16:24:42;94627.78;;;25.45;71.17
7990;BME280;4040;42.848;23.034;2023-06-26T16:27:09;94619.25;;;25.43;72.88
7990;BME280;4040;42.848;23.034;2023-06-26T16:32:59;94612.72;;;25.24;77.15
7990;BME280;4040;42.848;23.034;2023-06-26T16:38:47;94617.97;;;25.11;79.70
7990;BME280;4040;42.848;23.034;2023-06-26T16:44:37;94618.16;;;24.91;78.25
7990;BME280;4040;42.848;23.034;2023-06-26T16:50:26;94626.91;;;24.78;82.43
7990;BME280;4040;42.848;23.034;2023-06-26T16:56:14;94631.66;;;24.78;83.79
7990;BME280;4040;42.848;23.034;2023-06-26T17:02:05;94629.44;;;24.93;83.15
7990;BME280;4040;42.848;23.034;2023-06-26T17:07:53;94628.19;;;24.94;80.00
7990;BME280;4040;42.848;23.034;2023-06-26T17:13:42;94647.63;;;24.63;84.32
7990;BME280;4040;42.848;23.034;2023-06-26T17:19:32;94648.22;;;24.30;88.35
7990;BME280;4040;42.848;23.034;2023-06-26T17:25:22;94651.88;;;24.11;91.78
7990;BME280;4040;42.848;23.034;2023-06-26T17:31:11;94655.78;;;23.99;95.14
7990;BME280;4040;42.848;23.034;2023-06-26T17:37:01;94663.53;;;23.64;99.10
7990;BME280;4040;42.848;23.034;2023-06-26T17:42:51;94668.56;;;23.40;100.00
7990;BME280;4040;42.848;23.034;2023-06-26T17:48:40;94685.28;;;23.11;100.00
7990;BME280;4040;42.848;23.034;2023-06-26T17:54:30;94688.72;;;22.86;100.00
7990;BME280;4040;42.848;23.034;2023-06-26T18:00:19;94692.41;;;22.58;100.00
7990;BME280;4040;42.848;23.034;2023-06-26T18:06:08;94698.31;;;22.36;100.00
7990;BME280;4040;42.848;23.034;2023-06-26T18:11:58;94714.56;;;22.20;100.00
7990;BME280;4040;42.848;23.034;2023-06-26T18:17:46;94727.50;;;21.99;100.00
7990;BME280;4040;42.848;23.034;2023-06-26T18:23:35;94731.84;;;21.91;100.00
7990;BME280;4040;42.848;23.034;2023-06-26T18:33:38;94744.13;;;21.52;100.00
7990;BME280;4040;42.848;23.034;2023-06-26T18:39:26;94755.50;;;21.60;100.00
7990;BME280;4040;42.848;23.034;2023-06-26T18:45:15;94767.56;;;21.53;100.00
7990;BME280;4040;42.848;23.034;2023-06-26T18:51:05;94770.03;;;21.51;100.00
7990;BME280;4040;42.848;23.034;2023-06-26T18:56:53;94766.25;;;21.34;100.00
7990;BME280;4040;42.848;23.034;2023-06-26T19:02:47;94772.47;;;21.20;100.00
7990;BME280;4040;42.848;23.034;2023-06-26T19:08:38;94783.97;;;21.10;100.00
7990;BME280;4040;42.848;23.034;2023-06-26T19:14:26;94783.09;;;20.80;100.00
7990;BME280;4040;42.848;23.034;2023-06-26T19:20:15;94788.72;;;20.63;100.00
7990;BME280;4040;42.848;23.034;2023-06-26T19:26:07;94796.25;;;20.67;100.00
7990;BME280;4040;42.848;23.034;2023-06-26T19:36:17;94814.25;;;20.60;100.00
7990;BME280;4040;42.848;23.034;2023-06-26T19:42:09;94814.66;;;20.44;100.00
7990;BME280;4040;42.848;23.034;2023-06-26T19:47:58;94816.91;;;20.13;100.00
7990;BME280;4040;42.848;23.034;2023-06-26T19:53:47;94808.78;;;19.86;100.00
7990;BME280;4040;42.848;23.034;2023-06-26T19:59:37;94814.59;;;19.70;100.00
7990;BME280;4040;42.848;23.034;2023-06-26T20:05:26;94568.66;;;18.00;100.00
7990;BME280;4040;42.848;23.034;2023-06-26T20:11:15;94656.69;;;18.46;100.00
7990;BME280;4040;42.848;23.034;2023-06-26T20:17:05;94694.25;;;18.51;100.00
7990;BME280;4040;42.848;23.034;2023-06-26T20:22:54;94818.91;;;19.17;100.00
7990;BME280;4040;42.848;23.034;2023-06-26T20:28:44;94667.94;;;17.82;100.00
7990;BME280;4040;42.848;23.034;2023-06-26T20:38:57;94806.13;;;18.78;100.00
7990;BME280;4040;42.848;23.034;2023-06-26T20:44:46;94827.19;;;18.86;100.00
7990;BME280;4040;42.848;23.034;2023-06-26T20:50:37;94832.66;;;18.86;100.00
7990;BME280;4040;42.848;23.034;2023-06-26T20:56:27;94834.31;;;18.66;100.00
7990;BME280;4040;42.848;23.034;2023-06-26T21:02:15;94841.88;;;18.53;100.00
7990;BME280;4040;42.848;23.034;2023-06-26T21:08:04;94843.06;;;18.52;100.00
7990;BME280;4040;42.848;23.034;2023-06-26T21:13:54;94836.50;;;18.40;100.00
7990;BME280;4040;42.848;23.034;2023-06-26T21:19:43;94637.59;;;16.92;100.00
7990;BME280;4040;42.848;23.034;2023-06-26T21:25:32;94832.59;;;18.11;100.00
7990;BME280;4040;42.848;23.034;2023-06-26T21:31:22;94842.81;;;17.98;100.00
7990;BME280;4040;42.848;23.034;2023-06-26T21:41:33;94845.13;;;17.69;100.00
7990;BME280;4040;42.848;23.034;2023-06-26T21:47:23;94843.47;;;17.50;100.00
7990;BME280;4040;42.848;23.034;2023-06-26T21:53:11;94835.25;;;17.41;100.00
7990;BME280;4040;42.848;23.034;2023-06-26T21:59:00;94852.47;;;17.38;100.00
7990;BME280;4040;42.848;23.034;2023-06-26T22:08:29;94848.13;;;16.94;100.00
7990;BME280;4040;42.848;23.034;2023-06-26T22:14:17;94846.53;;;16.84;100.00
7990;BME280;4040;42.848;23.034;2023-06-26T22:20:07;94850.41;;;16.74;100.00
7990;BME280;4040;42.848;23.034;2023-06-26T22:25:57;94838.25;;;16.41;100.00
7990;BME280;4040;42.848;23.034;2023-06-26T22:31:46;94835.97;;;16.27;100.00
7990;BME280;4040;42.848;23.034;2023-06-26T22:37:34;94840.78;;;16.23;100.00
7990;BME280;4040;42.848;23.034;2023-06-26T22:43:25;94864.66;;;16.28;100.00
7990;BME280;4040;42.848;23.034;2023-06-26T22:49:13;94867.72;;;16.18;100.00
7990;BME280;4040;42.848;23.034;2023-06-26T22:55:03;94853.81;;;16.03;100.00
7990;BME280;4040;42.848;23.034;2023-06-26T23:00:53;94873.34;;;15.98;100.00
7990;BME280;4040;42.848;23.034;2023-06-26T23:11:08;94877.94;;;16.01;100.00
7990;BME280;4040;42.848;23.034;2023-06-26T23:16:58;94879.66;;;15.95;100.00
7990;BME280;4040;42.848;23.034;2023-06-26T23:22:50;94876.53;;;15.97;100.00
7990;BME280;4040;42.848;23.034;2023-06-26T23:28:39;94873.47;;;15.82;100.00
7990;BME280;4040;42.848;23.034;2023-06-26T23:34:29;94875.06;;;15.67;100.00
7990;BME280;4040;42.848;23.034;2023-06-26T23:40:18;94874.41;;;15.63;100.00
7990;BME280;4040;42.848;23.034;2023-06-26T23:46:09;94880.47;;;15.67;100.00
7990;BME280;4040;42.848;23.034;2023-06-26T23:52:00;94879.19;;;15.59;100.00
7990;BME280;4040;42.848;23.034;2023-06-26T23:57:48;94869.41;;;15.62;100.00
